sensor_id;sensor_type;location;lat;lon;timestamp;P1;durP1;ratioP1;P2;durP2;ratioP2
39276;SDS011;63149;48.086;-1.606;2023-04-03T05:01:11;16.63;;;4.75;;
39276;SDS011;63149;48.086;-1.606;2023-04-03T05:03:37;17.42;;;4.68;;
39276;SDS011;63149;48.086;-1.606;2023-04-03T05:06:04;21.50;;;6.00;;
39276;SDS011;63149;48.086;-1.606;2023-04-03T05:08:32;16.92;;;4.85;;
39276;SDS011;63149;48.086;-1.606;2023-04-03T05:10:59;15.25;;;4.97;;
39276;SDS011;63149;48.086;-1.606;2023-04-03T05:13:26;21.65;;;4.97;;
39276;SDS011;63149;48.086;-1.606;2023-04-03T05:15:53;23.52;;;5.10;;
39276;SDS011;63149;48.086;-1.606;2023-04-03T05:18:21;21.98;;;5.20;;
39276;SDS011;63149;48.086;-1.606;2023-04-03T05:20:48;17.90;;;5.85;;
39276;SDS011;63149;48.086;-1.606;2023-04-03T05:23:15;16.05;;;7.05;;
39276;SDS011;63149;48.086;-1.606;2023-04-03T05:25:42;19.98;;;6.53;;
39276;SDS011;63149;48.086;-1.606;2023-04-03T05:28:10;20.17;;;5.65;;
39276;SDS011;63149;48.086;-1.606;2023-04-03T05:30:37;12.13;;;5.45;;
39276;SDS011;63149;48.086;-1.606;2023-04-03T05:33:04;17.75;;;5.47;;
39276;SDS011;63149;48.086;-1.606;2023-04-03T05:35:32;18.45;;;5.15;;
39276;SDS011;63149;48.086;-1.606;2023-04-03T05:38:04;13.80;;;4.88;;
39276;SDS011;63149;48.086;-1.606;2023-04-03T05:40:31;13.48;;;6.00;;
39276;SDS011;63149;48.086;-1.606;2023-04-03T05:42:58;19.60;;;5.55;;
39276;SDS011;63149;48.086;-1.606;2023-04-03T05:45:25;14.77;;;5.15;;
39276;SDS011;63149;48.086;-1.606;2023-04-03T05:47:52;17.10;;;6.28;;
39276;SDS011;63149;48.086;-1.606;2023-04-03T05:50:19;16.98;;;5.97;;
39276;SDS011;63149;48.086;-1.606;2023-04-03T05:52:48;15.05;;;5.88;;
39276;SDS011;63149;48.086;-1.606;2023-04-03T05:55:17;11.30;;;5.70;;
39276;SDS011;63149;48.086;-1.606;2023-04-03T05:57:44;16.73;;;5.47;;
39276;SDS011;63149;48.086;-1.606;2023-04-03T06:00:13;18.58;;;5.20;;
39276;SDS011;63149;48.086;-1.606;2023-04-03T06:02:40;23.17;;;6.68;;
39276;SDS011;63149;48.086;-1.606;2023-04-03T06:05:08;13.05;;;6.10;;
39276;SDS011;63149;48.086;-1.606;2023-04-03T06:07:36;15.65;;;6.05;;
39276;SDS011;63149;48.086;-1.606;2023-04-03T06:10:05;16.92;;;6.40;;
39276;SDS011;63149;48.086;-1.606;2023-04-03T06:12:33;17.25;;;6.45;;
39276;SDS011;63149;48.086;-1.606;2023-04-03T06:15:00;21.95;;;8.30;;
39276;SDS011;63149;48.086;-1.606;2023-04-03T06:17:28;13.48;;;6.82;;
39276;SDS011;63149;48.086;-1.606;2023-04-03T06:19:56;14.18;;;6.55;;
39276;SDS011;63149;48.086;-1.606;2023-04-03T06:22:23;15.85;;;6.95;;
39276;SDS011;63149;48.086;-1.606;2023-04-03T06:24:51;15.00;;;6.50;;
39276;SDS011;63149;48.086;-1.606;2023-04-03T06:27:19;13.73;;;6.32;;
39276;SDS011;63149;48.086;-1.606;2023-04-03T06:29:46;14.82;;;7.18;;
39276;SDS011;63149;48.086;-1.606;2023-04-03T06:32:14;11.90;;;6.40;;
39276;SDS011;63149;48.086;-1.606;2023-04-03T06:34:41;16.70;;;6.65;;
39276;SDS011;63149;48.086;-1.606;2023-04-03T06:37:10;14.98;;;7.30;;
39276;SDS011;63149;48.086;-1.606;2023-04-03T06:39:37;13.15;;;6.55;;
39276;SDS011;63149;48.086;-1.606;2023-04-03T06:42:05;17.92;;;7.45;;
39276;SDS011;63149;48.086;-1.606;2023-04-03T06:44:33;17.38;;;6.80;;
39276;SDS011;63149;48.086;-1.606;2023-04-03T06:47:00;16.90;;;7.05;;
39276;SDS011;63149;48.086;-1.606;2023-04-03T06:49:27;12.60;;;7.18;;
39276;SDS011;63149;48.086;-1.606;2023-04-03T06:51:54;20.40;;;7.45;;
39276;SDS011;63149;48.086;-1.606;2023-04-03T06:54:22;13.35;;;7.35;;
39276;SDS011;63149;48.086;-1.606;2023-04-03T06:56:49;14.55;;;6.60;;
39276;SDS011;63149;48.086;-1.606;2023-04-03T06:59:16;11.02;;;7.20;;
39276;SDS011;63149;48.086;-1.606;2023-04-03T07:01:44;13.35;;;7.63;;
39276;SDS011;63149;48.086;-1.606;2023-04-03T07:04:12;14.13;;;7.18;;
39276;SDS011;63149;48.086;-1.606;2023-04-03T07:06:39;12.45;;;7.15;;
39276;SDS011;63149;48.086;-1.606;2023-04-03T07:09:06;18.92;;;8.00;;
39276;SDS011;63149;48.086;-1.606;2023-04-03T07:11:34;14.48;;;7.22;;
39276;SDS011;63149;48.086;-1.606;2023-04-03T07:14:01;15.80;;;7.93;;
39276;SDS011;63149;48.086;-1.606;2023-04-03T07:16:28;14.60;;;7.38;;
39276;SDS011;63149;48.086;-1.606;2023-04-03T07:18:57;14.38;;;6.72;;
39276;SDS011;63149;48.086;-1.606;2023-04-03T07:21:24;17.42;;;8.52;;
39276;SDS011;63149;48.086;-1.606;2023-04-03T07:23:51;12.65;;;7.22;;
39276;SDS011;63149;48.086;-1.606;2023-04-03T07:26:18;15.18;;;7.85;;
39276;SDS011;63149;48.086;-1.606;2023-04-03T07:28:46;14.05;;;7.93;;
39276;SDS011;63149;48.086;-1.606;2023-04-03T07:31:14;23.60;;;8.75;;
39276;SDS011;63149;48.086;-1.606;2023-04-03T07:33:42;17.80;;;8.50;;
39276;SDS011;63149;48.086;-1.606;2023-04-03T07:36:13;15.65;;;7.60;;
39276;SDS011;63149;48.086;-1.606;2023-04-03T07:38:42;13.27;;;9.07;;
39276;SDS011;63149;48.086;-1.606;2023-04-03T07:41:11;14.98;;;9.88;;
39276;SDS011;63149;48.086;-1.606;2023-04-03T07:43:40;15.45;;;9.20;;
39276;SDS011;63149;48.086;-1.606;2023-04-03T07:46:07;14.00;;;8.48;;
39276;SDS011;63149;48.086;-1.606;2023-04-03T07:48:35;26.30;;;18.13;;
39276;SDS011;63149;48.086;-1.606;2023-04-03T07:51:03;26.50;;;18.00;;
39276;SDS011;63149;48.086;-1.606;2023-04-03T07:53:32;25.52;;;17.75;;
39276;SDS011;63149;48.086;-1.606;2023-04-03T07:55:59;30.50;;;15.30;;
39276;SDS011;63149;48.086;-1.606;2023-04-03T07:58:27;18.13;;;10.43;;
39276;SDS011;63149;48.086;-1.606;2023-04-03T08:00:55;17.30;;;10.00;;
39276;SDS011;63149;48.086;-1.606;2023-04-03T08:03:22;17.73;;;9.32;;
39276;SDS011;63149;48.086;-1.606;2023-04-03T08:05:49;20.50;;;11.82;;
39276;SDS011;63149;48.086;-1.606;2023-04-03T08:08:17;19.30;;;10.27;;
39276;SDS011;63149;48.086;-1.606;2023-04-03T08:10:49;25.67;;;9.88;;
39276;SDS011;63149;48.086;-1.606;2023-04-03T08:13:16;20.45;;;9.48;;
39276;SDS011;63149;48.086;-1.606;2023-04-03T08:15:44;17.85;;;9.60;;
39276;SDS011;63149;48.086;-1.606;2023-04-03T08:18:11;17.10;;;9.55;;
39276;SDS011;63149;48.086;-1.606;2023-04-03T08:20:38;16.08;;;9.40;;
39276;SDS011;63149;48.086;-1.606;2023-04-03T08:23:06;13.20;;;8.10;;
39276;SDS011;63149;48.086;-1.606;2023-04-03T08:25:33;20.55;;;10.77;;
39276;SDS011;63149;48.086;-1.606;2023-04-03T08:28:02;14.90;;;10.25;;
39276;SDS011;63149;48.086;-1.606;2023-04-03T08:30:29;12.52;;;9.13;;
39276;SDS011;63149;48.086;-1.606;2023-04-03T08:32:56;20.02;;;9.73;;
39276;SDS011;63149;48.086;-1.606;2023-04-03T08:35:23;16.90;;;9.50;;
39276;SDS011;63149;48.086;-1.606;2023-04-03T08:37:50;15.15;;;9.55;;
39276;SDS011;63149;48.086;-1.606;2023-04-03T08:40:17;13.27;;;9.70;;
39276;SDS011;63149;48.086;-1.606;2023-04-03T08:42:50;17.40;;;10.18;;
39276;SDS011;63149;48.086;-1.606;2023-04-03T08:45:33;16.15;;;10.63;;
39276;SDS011;63149;48.086;-1.606;2023-04-03T08:48:11;21.20;;;9.82;;
39276;SDS011;63149;48.086;-1.606;2023-04-03T08:50:42;15.60;;;10.57;;
39276;SDS011;63149;48.086;-1.606;2023-04-03T08:53:14;17.42;;;10.82;;
39276;SDS011;63149;48.086;-1.606;2023-04-03T08:55:42;16.30;;;10.48;;
39276;SDS011;63149;48.086;-1.606;2023-04-03T08:58:12;17.40;;;10.52;;
39276;SDS011;63149;48.086;-1.606;2023-04-03T09:00:45;20.38;;;10.82;;
39276;SDS011;63149;48.086;-1.606;2023-04-03T09:03:15;16.58;;;10.93;;
39276;SDS011;63149;48.086;-1.606;2023-04-03T09:05:45;16.92;;;10.95;;
39276;SDS011;63149;48.086;-1.606;2023-04-03T09:08:20;20.40;;;11.00;;
39276;SDS011;63149;48.086;-1.606;2023-04-03T09:10:52;20.80;;;11.48;;
39276;SDS011;63149;48.086;-1.606;2023-04-03T09:13:27;19.63;;;11.90;;
39276;SDS011;63149;48.086;-1.606;2023-04-03T09:16:03;21.90;;;11.35;;
39276;SDS011;63149;48.086;-1.606;2023-04-03T09:18:37;22.15;;;11.88;;
39276;SDS011;63149;48.086;-1.606;2023-04-03T09:21:13;17.27;;;10.57;;
39276;SDS011;63149;48.086;-1.606;2023-04-03T09:23:47;21.70;;;12.30;;
39276;SDS011;63149;48.086;-1.606;2023-04-03T09:26:18;19.17;;;11.57;;
39276;SDS011;63149;48.086;-1.606;2023-04-03T09:28:49;17.83;;;12.10;;
39276;SDS011;63149;48.086;-1.606;2023-04-03T09:31:20;21.27;;;11.75;;
39276;SDS011;63149;48.086;-1.606;2023-04-03T09:33:49;19.20;;;12.30;;
39276;SDS011;63149;48.086;-1.606;2023-04-03T09:36:41;19.40;;;10.90;;
39276;SDS011;63149;48.086;-1.606;2023-04-03T09:39:10;19.63;;;11.18;;
39276;SDS011;63149;48.086;-1.606;2023-04-03T09:41:39;22.60;;;12.27;;
39276;SDS011;63149;48.086;-1.606;2023-04-03T09:44:17;22.60;;;11.00;;
39276;SDS011;63149;48.086;-1.606;2023-04-03T09:46:49;19.27;;;12.00;;
39276;SDS011;63149;48.086;-1.606;2023-04-03T09:49:16;20.80;;;12.02;;
39276;SDS011;63149;48.086;-1.606;2023-04-03T09:51:43;23.27;;;11.93;;
39276;SDS011;63149;48.086;-1.606;2023-04-03T09:54:30;20.33;;;11.77;;
39276;SDS011;63149;48.086;-1.606;2023-04-03T09:57:00;19.33;;;12.25;;
39276;SDS011;63149;48.086;-1.606;2023-04-03T09:59:32;20.90;;;12.63;;
39276;SDS011;63149;48.086;-1.606;2023-04-03T10:02:02;21.98;;;12.68;;
39276;SDS011;63149;48.086;-1.606;2023-04-03T10:04:39;15.02;;;9.13;;
39276;SDS011;63149;48.086;-1.606;2023-04-03T10:09:54;23.35;;;13.30;;
39276;SDS011;63149;48.086;-1.606;2023-04-03T10:12:22;21.88;;;13.38;;
39276;SDS011;63149;48.086;-1.606;2023-04-03T10:14:53;22.40;;;12.95;;
39276;SDS011;63149;48.086;-1.606;2023-04-03T10:17:24;22.23;;;13.73;;
39276;SDS011;63149;48.086;-1.606;2023-04-03T10:20:02;21.13;;;12.82;;
39276;SDS011;63149;48.086;-1.606;2023-04-03T10:22:40;21.33;;;12.35;;
39276;SDS011;63149;48.086;-1.606;2023-04-03T10:25:17;23.58;;;12.52;;
39276;SDS011;63149;48.086;-1.606;2023-04-03T10:27:53;24.20;;;13.13;;
39276;SDS011;63149;48.086;-1.606;2023-04-03T10:30:29;21.27;;;12.90;;
39276;SDS011;63149;48.086;-1.606;2023-04-03T10:33:26;19.80;;;11.65;;
39276;SDS011;63149;48.086;-1.606;2023-04-03T10:36:06;20.13;;;11.80;;
39276;SDS011;63149;48.086;-1.606;2023-04-03T10:38:41;19.08;;;12.13;;
39276;SDS011;63149;48.086;-1.606;2023-04-03T10:41:16;19.88;;;12.18;;
39276;SDS011;63149;48.086;-1.606;2023-04-03T10:43:53;21.02;;;13.55;;
39276;SDS011;63149;48.086;-1.606;2023-04-03T10:46:27;18.80;;;12.20;;
39276;SDS011;63149;48.086;-1.606;2023-04-03T10:49:04;20.27;;;12.07;;
39276;SDS011;63149;48.086;-1.606;2023-04-03T10:51:40;21.23;;;13.45;;
39276;SDS011;63149;48.086;-1.606;2023-04-03T10:54:12;20.20;;;13.23;;
39276;SDS011;63149;48.086;-1.606;2023-04-03T10:56:42;18.67;;;12.43;;
39276;SDS011;63149;48.086;-1.606;2023-04-03T10:59:16;22.70;;;12.73;;
39276;SDS011;63149;48.086;-1.606;2023-04-03T11:01:50;20.67;;;12.63;;
39276;SDS011;63149;48.086;-1.606;2023-04-03T11:04:21;18.70;;;12.43;;
39276;SDS011;63149;48.086;-1.606;2023-04-03T11:06:51;18.02;;;12.30;;
39276;SDS011;63149;48.086;-1.606;2023-04-03T11:09:24;17.27;;;11.27;;
39276;SDS011;63149;48.086;-1.606;2023-04-03T11:11:55;17.30;;;11.98;;
39276;SDS011;63149;48.086;-1.606;2023-04-03T11:14:27;15.32;;;10.73;;
39276;SDS011;63149;48.086;-1.606;2023-04-03T11:17:01;19.02;;;11.85;;
39276;SDS011;63149;48.086;-1.606;2023-04-03T11:19:36;16.38;;;10.88;;
39276;SDS011;63149;48.086;-1.606;2023-04-03T11:22:11;16.52;;;11.68;;
39276;SDS011;63149;48.086;-1.606;2023-04-03T11:24:51;14.13;;;11.65;;
39276;SDS011;63149;48.086;-1.606;2023-04-03T11:27:24;15.52;;;11.95;;
39276;SDS011;63149;48.086;-1.606;2023-04-03T11:29:55;16.25;;;11.32;;
39276;SDS011;63149;48.086;-1.606;2023-04-03T11:32:40;14.77;;;11.45;;
39276;SDS011;63149;48.086;-1.606;2023-04-03T11:35:19;14.63;;;11.30;;
39276;SDS011;63149;48.086;-1.606;2023-04-03T11:37:48;14.65;;;10.60;;
39276;SDS011;63149;48.086;-1.606;2023-04-03T11:40:22;12.65;;;10.20;;
39276;SDS011;63149;48.086;-1.606;2023-04-03T11:42:52;14.15;;;11.25;;
39276;SDS011;63149;48.086;-1.606;2023-04-03T11:45:37;16.15;;;10.77;;
39276;SDS011;63149;48.086;-1.606;2023-04-03T12:15:17;13.38;;;9.88;;
39276;SDS011;63149;48.086;-1.606;2023-04-03T12:18:01;16.65;;;11.25;;
39276;SDS011;63149;48.086;-1.606;2023-04-03T12:21:15;12.40;;;10.02;;
39276;SDS011;63149;48.086;-1.606;2023-04-03T12:23:56;11.30;;;9.45;;
39276;SDS011;63149;48.086;-1.606;2023-04-03T12:26:27;12.98;;;9.68;;
39276;SDS011;63149;48.086;-1.606;2023-04-03T12:28:58;14.65;;;9.43;;
39276;SDS011;63149;48.086;-1.606;2023-04-03T12:31:33;11.65;;;9.70;;
39276;SDS011;63149;48.086;-1.606;2023-04-03T12:37:01;11.45;;;9.68;;
39276;SDS011;63149;48.086;-1.606;2023-04-03T12:39:51;10.82;;;8.77;;
39276;SDS011;63149;48.086;-1.606;2023-04-03T12:42:32;11.23;;;9.45;;
39276;SDS011;63149;48.086;-1.606;2023-04-03T12:45:16;10.90;;;8.68;;
39276;SDS011;63149;48.086;-1.606;2023-04-03T12:47:45;10.75;;;9.60;;
39276;SDS011;63149;48.086;-1.606;2023-04-03T12:50:20;11.65;;;8.88;;
39276;SDS011;63149;48.086;-1.606;2023-04-03T12:52:51;9.82;;;8.48;;
39276;SDS011;63149;48.086;-1.606;2023-04-03T12:55:22;9.93;;;7.68;;
39276;SDS011;63149;48.086;-1.606;2023-04-03T12:57:49;9.40;;;8.32;;
39276;SDS011;63149;48.086;-1.606;2023-04-03T13:00:25;9.70;;;8.32;;
39276;SDS011;63149;48.086;-1.606;2023-04-03T13:02:55;10.48;;;8.13;;
39276;SDS011;63149;48.086;-1.606;2023-04-03T13:05:22;11.88;;;8.30;;
39276;SDS011;63149;48.086;-1.606;2023-04-03T13:07:52;12.25;;;9.05;;
39276;SDS011;63149;48.086;-1.606;2023-04-03T13:10:24;13.38;;;7.93;;
39276;SDS011;63149;48.086;-1.606;2023-04-03T13:12:51;10.55;;;8.32;;
39276;SDS011;63149;48.086;-1.606;2023-04-03T13:15:21;10.60;;;8.63;;
39276;SDS011;63149;48.086;-1.606;2023-04-03T13:17:51;11.63;;;9.02;;
39276;SDS011;63149;48.086;-1.606;2023-04-03T13:20:20;13.02;;;9.77;;
39276;SDS011;63149;48.086;-1.606;2023-04-03T13:22:51;11.30;;;9.20;;
39276;SDS011;63149;48.086;-1.606;2023-04-03T13:25:21;11.18;;;9.55;;
39276;SDS011;63149;48.086;-1.606;2023-04-03T13:27:49;10.85;;;8.10;;
39276;SDS011;63149;48.086;-1.606;2023-04-03T13:30:20;11.02;;;9.23;;
39276;SDS011;63149;48.086;-1.606;2023-04-03T13:32:55;10.10;;;8.48;;
39276;SDS011;63149;48.086;-1.606;2023-04-03T13:35:31;14.88;;;9.18;;
39276;SDS011;63149;48.086;-1.606;2023-04-03T13:38:01;17.55;;;10.23;;
39276;SDS011;63149;48.086;-1.606;2023-04-03T13:40:31;10.65;;;9.13;;
39276;SDS011;63149;48.086;-1.606;2023-04-03T13:42:59;14.25;;;9.65;;
39276;SDS011;63149;48.086;-1.606;2023-04-03T13:45:28;10.80;;;8.85;;
39276;SDS011;63149;48.086;-1.606;2023-04-03T13:48:07;13.00;;;9.32;;
39276;SDS011;63149;48.086;-1.606;2023-04-03T13:50:50;11.50;;;8.40;;
39276;SDS011;63149;48.086;-1.606;2023-04-03T13:53:23;17.35;;;10.27;;
39276;SDS011;63149;48.086;-1.606;2023-04-03T13:55:53;11.60;;;9.20;;
39276;SDS011;63149;48.086;-1.606;2023-04-03T13:58:23;13.35;;;8.98;;
39276;SDS011;63149;48.086;-1.606;2023-04-03T14:00:53;12.70;;;9.40;;
39276;SDS011;63149;48.086;-1.606;2023-04-03T14:03:23;10.40;;;8.10;;
39276;SDS011;63149;48.086;-1.606;2023-04-03T14:05:51;11.65;;;9.02;;
39276;SDS011;63149;48.086;-1.606;2023-04-03T14:08:18;10.50;;;8.68;;
39276;SDS011;63149;48.086;-1.606;2023-04-03T14:10:46;12.48;;;8.73;;
39276;SDS011;63149;48.086;-1.606;2023-04-03T14:13:15;12.48;;;8.68;;
39276;SDS011;63149;48.086;-1.606;2023-04-03T14:15:44;11.57;;;8.60;;
39276;SDS011;63149;48.086;-1.606;2023-04-03T14:18:15;11.05;;;7.80;;
39276;SDS011;63149;48.086;-1.606;2023-04-03T14:20:44;9.80;;;8.63;;
39276;SDS011;63149;48.086;-1.606;2023-04-03T14:23:11;11.73;;;8.95;;
39276;SDS011;63149;48.086;-1.606;2023-04-03T14:25:38;9.93;;;8.40;;
39276;SDS011;63149;48.086;-1.606;2023-04-03T14:28:12;10.13;;;8.40;;
39276;SDS011;63149;48.086;-1.606;2023-04-03T14:30:42;12.23;;;8.68;;
39276;SDS011;63149;48.086;-1.606;2023-04-03T14:33:10;11.18;;;8.48;;
39276;SDS011;63149;48.086;-1.606;2023-04-03T14:35:41;14.60;;;9.82;;
39276;SDS011;63149;48.086;-1.606;2023-04-03T14:38:21;10.20;;;8.30;;
39276;SDS011;63149;48.086;-1.606;2023-04-03T14:40:50;12.75;;;8.07;;
39276;SDS011;63149;48.086;-1.606;2023-04-03T14:43:18;10.00;;;8.23;;
39276;SDS011;63149;48.086;-1.606;2023-04-03T14:45:45;13.07;;;9.60;;
39276;SDS011;63149;48.086;-1.606;2023-04-03T14:48:15;11.85;;;8.38;;
39276;SDS011;63149;48.086;-1.606;2023-04-03T14:50:46;11.80;;;8.70;;
39276;SDS011;63149;48.086;-1.606;2023-04-03T14:53:14;10.63;;;8.85;;
39276;SDS011;63149;48.086;-1.606;2023-04-03T14:55:42;10.13;;;8.50;;
39276;SDS011;63149;48.086;-1.606;2023-04-03T14:58:12;9.38;;;8.10;;
39276;SDS011;63149;48.086;-1.606;2023-04-03T15:00:40;11.77;;;8.90;;
39276;SDS011;63149;48.086;-1.606;2023-04-03T15:03:11;10.63;;;8.48;;
39276;SDS011;63149;48.086;-1.606;2023-04-03T15:05:40;13.52;;;9.43;;
39276;SDS011;63149;48.086;-1.606;2023-04-03T15:08:11;11.35;;;9.30;;
39276;SDS011;63149;48.086;-1.606;2023-04-03T15:10:44;10.27;;;8.43;;
39276;SDS011;63149;48.086;-1.606;2023-04-03T15:13:11;11.35;;;8.93;;
39276;SDS011;63149;48.086;-1.606;2023-04-03T15:15:39;12.57;;;9.10;;
39276;SDS011;63149;48.086;-1.606;2023-04-03T15:18:09;10.32;;;8.38;;
39276;SDS011;63149;48.086;-1.606;2023-04-03T15:20:41;11.70;;;8.57;;
39276;SDS011;63149;48.086;-1.606;2023-04-03T15:23:08;14.20;;;9.57;;
39276;SDS011;63149;48.086;-1.606;2023-04-03T15:25:38;11.10;;;8.60;;
39276;SDS011;63149;48.086;-1.606;2023-04-03T15:28:05;13.55;;;8.80;;
39276;SDS011;63149;48.086;-1.606;2023-04-03T15:30:36;11.23;;;8.30;;
39276;SDS011;63149;48.086;-1.606;2023-04-03T15:33:04;15.00;;;8.68;;
39276;SDS011;63149;48.086;-1.606;2023-04-03T15:35:31;8.40;;;7.38;;
39276;SDS011;63149;48.086;-1.606;2023-04-03T15:38:00;11.85;;;6.70;;
39276;SDS011;63149;48.086;-1.606;2023-04-03T15:40:28;8.45;;;7.00;;
39276;SDS011;63149;48.086;-1.606;2023-04-03T15:42:55;9.27;;;6.40;;
39276;SDS011;63149;48.086;-1.606;2023-04-03T15:45:22;8.15;;;6.45;;
39276;SDS011;63149;48.086;-1.606;2023-04-03T15:47:49;9.00;;;6.75;;
39276;SDS011;63149;48.086;-1.606;2023-04-03T15:50:16;12.02;;;6.13;;
39276;SDS011;63149;48.086;-1.606;2023-04-03T15:52:43;7.97;;;6.40;;
39276;SDS011;63149;48.086;-1.606;2023-04-03T15:55:10;10.32;;;6.20;;
39276;SDS011;63149;48.086;-1.606;2023-04-03T15:57:39;8.52;;;5.85;;
39276;SDS011;63149;48.086;-1.606;2023-04-03T16:00:06;6.70;;;5.95;;
39276;SDS011;63149;48.086;-1.606;2023-04-03T16:02:34;7.30;;;5.60;;
39276;SDS011;63149;48.086;-1.606;2023-04-03T16:05:01;8.57;;;5.90;;
39276;SDS011;63149;48.086;-1.606;2023-04-03T16:07:29;6.43;;;5.63;;
39276;SDS011;63149;48.086;-1.606;2023-04-03T16:09:56;7.10;;;5.40;;
39276;SDS011;63149;48.086;-1.606;2023-04-03T16:12:23;7.95;;;5.80;;
39276;SDS011;63149;48.086;-1.606;2023-04-03T16:14:51;7.13;;;5.63;;
39276;SDS011;63149;48.086;-1.606;2023-04-03T16:17:18;6.60;;;5.40;;
39276;SDS011;63149;48.086;-1.606;2023-04-03T16:19:45;7.97;;;6.03;;
39276;SDS011;63149;48.086;-1.606;2023-04-03T16:22:12;9.95;;;6.22;;
39276;SDS011;63149;48.086;-1.606;2023-04-03T16:24:39;7.47;;;5.85;;
39276;SDS011;63149;48.086;-1.606;2023-04-03T16:27:06;10.23;;;5.53;;
39276;SDS011;63149;48.086;-1.606;2023-04-03T16:29:33;8.07;;;5.88;;
39276;SDS011;63149;48.086;-1.606;2023-04-03T16:32:01;6.68;;;5.50;;
39276;SDS011;63149;48.086;-1.606;2023-04-03T16:34:29;6.72;;;5.63;;
39276;SDS011;63149;48.086;-1.606;2023-04-03T16:36:57;8.70;;;6.57;;
39276;SDS011;63149;48.086;-1.606;2023-04-03T16:39:24;8.68;;;5.47;;
39276;SDS011;63149;48.086;-1.606;2023-04-03T16:41:51;8.90;;;5.60;;
39276;SDS011;63149;48.086;-1.606;2023-04-03T16:44:18;9.52;;;6.47;;
39276;SDS011;63149;48.086;-1.606;2023-04-03T16:46:45;9.30;;;6.90;;
39276;SDS011;63149;48.086;-1.606;2023-04-03T16:49:13;6.95;;;5.53;;
39276;SDS011;63149;48.086;-1.606;2023-04-03T16:51:40;9.77;;;6.35;;
39276;SDS011;63149;48.086;-1.606;2023-04-03T16:54:07;8.63;;;6.25;;
39276;SDS011;63149;48.086;-1.606;2023-04-03T16:56:35;9.50;;;7.18;;
39276;SDS011;63149;48.086;-1.606;2023-04-03T16:59:02;7.30;;;5.95;;
39276;SDS011;63149;48.086;-1.606;2023-04-03T17:01:29;10.40;;;6.55;;
39276;SDS011;63149;48.086;-1.606;2023-04-03T17:03:56;8.38;;;6.22;;
39276;SDS011;63149;48.086;-1.606;2023-04-03T17:06:24;9.68;;;6.30;;
39276;SDS011;63149;48.086;-1.606;2023-04-03T17:08:51;9.93;;;6.78;;
39276;SDS011;63149;48.086;-1.606;2023-04-03T17:11:18;9.00;;;6.32;;
39276;SDS011;63149;48.086;-1.606;2023-04-03T17:13:46;9.13;;;6.63;;
39276;SDS011;63149;48.086;-1.606;2023-04-03T17:16:13;10.70;;;6.68;;
39276;SDS011;63149;48.086;-1.606;2023-04-03T17:18:41;8.80;;;6.50;;
39276;SDS011;63149;48.086;-1.606;2023-04-03T17:21:09;9.80;;;6.32;;
39276;SDS011;63149;48.086;-1.606;2023-04-03T17:23:38;6.88;;;5.68;;
39276;SDS011;63149;48.086;-1.606;2023-04-03T17:26:07;10.05;;;6.65;;
39276;SDS011;63149;48.086;-1.606;2023-04-03T17:28:34;9.68;;;6.25;;
39276;SDS011;63149;48.086;-1.606;2023-04-03T17:31:01;8.80;;;6.35;;
39276;SDS011;63149;48.086;-1.606;2023-04-03T17:33:29;9.05;;;7.22;;
39276;SDS011;63149;48.086;-1.606;2023-04-03T17:35:56;8.23;;;6.68;;
39276;SDS011;63149;48.086;-1.606;2023-04-03T17:38:23;8.60;;;5.85;;
39276;SDS011;63149;48.086;-1.606;2023-04-03T17:40:52;10.10;;;6.55;;
39276;SDS011;63149;48.086;-1.606;2023-04-03T17:43:22;11.25;;;6.28;;
39276;SDS011;63149;48.086;-1.606;2023-04-03T17:45:49;10.30;;;7.18;;
39276;SDS011;63149;48.086;-1.606;2023-04-03T17:48:16;9.88;;;6.75;;
39276;SDS011;63149;48.086;-1.606;2023-04-03T17:50:43;8.90;;;7.00;;
39276;SDS011;63149;48.086;-1.606;2023-04-03T17:53:10;11.18;;;7.18;;
39276;SDS011;63149;48.086;-1.606;2023-04-03T17:55:39;18.70;;;9.57;;
39276;SDS011;63149;48.086;-1.606;2023-04-03T17:58:07;8.05;;;7.05;;
39276;SDS011;63149;48.086;-1.606;2023-04-03T18:00:35;8.50;;;6.55;;
39276;SDS011;63149;48.086;-1.606;2023-04-03T18:03:02;8.93;;;7.15;;
39276;SDS011;63149;48.086;-1.606;2023-04-03T18:05:29;8.63;;;6.63;;
39276;SDS011;63149;48.086;-1.606;2023-04-03T18:07:57;11.27;;;8.07;;
39276;SDS011;63149;48.086;-1.606;2023-04-03T18:10:26;11.80;;;7.50;;
39276;SDS011;63149;48.086;-1.606;2023-04-03T18:12:54;11.27;;;8.35;;
39276;SDS011;63149;48.086;-1.606;2023-04-03T18:15:23;10.52;;;8.02;;
39276;SDS011;63149;48.086;-1.606;2023-04-03T18:17:50;11.23;;;8.73;;
39276;SDS011;63149;48.086;-1.606;2023-04-03T18:20:20;10.40;;;8.05;;
39276;SDS011;63149;48.086;-1.606;2023-04-03T18:22:48;13.55;;;10.15;;
39276;SDS011;63149;48.086;-1.606;2023-04-03T18:25:15;11.25;;;9.43;;
39276;SDS011;63149;48.086;-1.606;2023-04-03T18:27:42;17.25;;;10.70;;
39276;SDS011;63149;48.086;-1.606;2023-04-03T18:30:12;12.10;;;9.85;;
39276;SDS011;63149;48.086;-1.606;2023-04-03T18:32:43;14.82;;;9.95;;
39276;SDS011;63149;48.086;-1.606;2023-04-03T18:35:10;12.48;;;10.05;;
39276;SDS011;63149;48.086;-1.606;2023-04-03T18:37:37;13.88;;;9.90;;
39276;SDS011;63149;48.086;-1.606;2023-04-03T18:40:05;13.98;;;9.82;;
39276;SDS011;63149;48.086;-1.606;2023-04-03T18:42:32;13.40;;;10.05;;
39276;SDS011;63149;48.086;-1.606;2023-04-03T18:45:00;12.93;;;10.27;;
39276;SDS011;63149;48.086;-1.606;2023-04-03T18:47:30;14.65;;;10.40;;
39276;SDS011;63149;48.086;-1.606;2023-04-03T18:49:59;13.32;;;10.52;;
39276;SDS011;63149;48.086;-1.606;2023-04-03T18:52:26;13.82;;;10.13;;
39276;SDS011;63149;48.086;-1.606;2023-04-03T18:54:53;15.38;;;10.20;;
39276;SDS011;63149;48.086;-1.606;2023-04-03T18:57:20;15.38;;;10.95;;
39276;SDS011;63149;48.086;-1.606;2023-04-03T18:59:48;16.15;;;11.63;;
39276;SDS011;63149;48.086;-1.606;2023-04-03T19:02:15;16.80;;;11.75;;
39276;SDS011;63149;48.086;-1.606;2023-04-03T19:04:43;15.70;;;11.45;;
39276;SDS011;63149;48.086;-1.606;2023-04-03T19:07:11;12.68;;;10.57;;
39276;SDS011;63149;48.086;-1.606;2023-04-03T19:09:38;14.32;;;11.60;;
39276;SDS011;63149;48.086;-1.606;2023-04-03T19:12:05;18.75;;;12.40;;
39276;SDS011;63149;48.086;-1.606;2023-04-03T19:14:33;17.10;;;12.57;;
39276;SDS011;63149;48.086;-1.606;2023-04-03T19:16:59;17.52;;;12.00;;
39276;SDS011;63149;48.086;-1.606;2023-04-03T19:19:28;18.58;;;12.30;;
39276;SDS011;63149;48.086;-1.606;2023-04-03T19:21:55;17.63;;;12.10;;
39276;SDS011;63149;48.086;-1.606;2023-04-03T19:24:24;17.15;;;12.68;;
39276;SDS011;63149;48.086;-1.606;2023-04-03T19:26:51;13.70;;;11.55;;
39276;SDS011;63149;48.086;-1.606;2023-04-03T19:29:18;19.33;;;12.98;;
39276;SDS011;63149;48.086;-1.606;2023-04-03T19:31:45;19.65;;;12.57;;
39276;SDS011;63149;48.086;-1.606;2023-04-03T19:34:11;22.23;;;13.18;;
39276;SDS011;63149;48.086;-1.606;2023-04-03T19:36:38;21.20;;;14.02;;
39276;SDS011;63149;48.086;-1.606;2023-04-03T19:39:06;20.88;;;14.80;;
39276;SDS011;63149;48.086;-1.606;2023-04-03T19:41:35;22.08;;;14.10;;
39276;SDS011;63149;48.086;-1.606;2023-04-03T19:44:05;19.92;;;14.00;;
39276;SDS011;63149;48.086;-1.606;2023-04-03T19:46:34;20.30;;;13.10;;
39276;SDS011;63149;48.086;-1.606;2023-04-03T19:49:02;24.67;;;14.45;;
39276;SDS011;63149;48.086;-1.606;2023-04-03T19:51:29;19.58;;;13.68;;
39276;SDS011;63149;48.086;-1.606;2023-04-03T19:53:56;24.00;;;15.00;;
39276;SDS011;63149;48.086;-1.606;2023-04-03T19:56:22;19.52;;;15.00;;
39276;SDS011;63149;48.086;-1.606;2023-04-03T19:58:51;22.33;;;14.98;;
39276;SDS011;63149;48.086;-1.606;2023-04-03T20:01:19;22.38;;;14.50;;
39276;SDS011;63149;48.086;-1.606;2023-04-03T20:03:46;19.25;;;15.02;;
39276;SDS011;63149;48.086;-1.606;2023-04-03T20:06:13;20.42;;;14.30;;